createdAt,value
2018-08-24T00:00:19.503Z,4.20
2018-08-24T00:02:48.195Z,4.40
2018-08-24T00:05:16.971Z,4.75
2018-08-24T00:07:45.675Z,5.08
2018-08-24T00:10:16.179Z,4.70
2018-08-24T00:12:44.771Z,4.78
2018-08-24T00:15:13.476Z,4.90
2018-08-24T00:17:46.608Z,5.15
2018-08-24T00:20:15.204Z,5.15
2018-08-24T00:22:45.184Z,5.15
2018-08-24T00:25:13.934Z,4.80
2018-08-24T00:27:43.285Z,5.10
2018-08-24T00:30:12.225Z,5.25
2018-08-24T00:32:40.963Z,5.20
2018-08-24T00:35:09.674Z,5.20
2018-08-24T00:37:39.713Z,5.28
2018-08-24T00:40:08.365Z,5.30
2018-08-24T00:42:37.204Z,5.60
2018-08-24T00:45:06.145Z,5.47
2018-08-24T00:47:35.100Z,5.55
2018-08-24T00:50:03.835Z,5.40
2018-08-24T00:52:32.450Z,5.90
2018-08-24T00:55:01.197Z,5.67
2018-08-24T00:57:32.744Z,5.30
2018-08-24T01:00:01.394Z,5.65
2018-08-24T01:02:29.995Z,5.70
2018-08-24T01:04:58.863Z,5.58
2018-08-24T01:07:27.433Z,5.60
2018-08-24T01:09:56.263Z,5.77
2018-08-24T01:12:24.937Z,5.65
2018-08-24T01:14:53.645Z,5.80
2018-08-24T01:17:27.463Z,5.85
2018-08-24T01:19:56.099Z,5.53
2018-08-24T01:22:24.780Z,6.00
2018-08-24T01:24:54.943Z,5.90
2018-08-24T01:27:23.622Z,5.92
2018-08-24T01:29:53.540Z,5.92
2018-08-24T01:32:22.307Z,5.90
2018-08-24T01:34:50.979Z,6.37
2018-08-24T01:37:19.657Z,6.67
2018-08-24T01:39:48.399Z,6.30
2018-08-24T01:42:17.052Z,6.22
2018-08-24T01:44:48.228Z,6.50
2018-08-24T01:47:17.059Z,5.97
2018-08-24T01:49:45.704Z,6.42
2018-08-24T01:52:14.417Z,6.35
2018-08-24T01:54:42.978Z,5.90
2018-08-24T01:57:11.658Z,6.55
2018-08-24T01:59:40.456Z,6.80
2018-08-24T02:02:09.147Z,8.73
2018-08-24T02:04:37.939Z,9.93
2018-08-24T02:07:06.610Z,9.60
2018-08-24T02:09:35.307Z,9.43
2018-08-24T02:12:04.165Z,9.90
2018-08-24T02:14:40.531Z,9.93
2018-08-24T02:17:14.501Z,9.23
2018-08-24T02:19:48.412Z,8.77
2018-08-24T02:22:18.512Z,8.83
2018-08-24T02:24:47.097Z,8.43
2018-08-24T02:27:15.869Z,7.50
2018-08-24T02:29:44.543Z,7.30
2018-08-24T02:32:13.237Z,7.00
2018-08-24T02:34:44.146Z,7.10
2018-08-24T02:37:12.801Z,6.75
2018-08-24T02:39:41.424Z,6.85
2018-08-24T02:42:10.886Z,6.67
2018-08-24T02:44:39.558Z,6.73
2018-08-24T02:47:08.160Z,6.42
2018-08-24T02:49:36.926Z,6.50
2018-08-24T02:52:05.730Z,6.50
2018-08-24T02:54:34.367Z,7.45
2018-08-24T02:57:04.147Z,6.67
2018-08-24T02:59:32.826Z,6.80
2018-08-24T03:02:02.882Z,7.03
2018-08-24T03:04:31.785Z,7.30
2018-08-24T03:07:00.620Z,7.05
2018-08-24T03:09:29.347Z,7.05
2018-08-24T03:11:58.349Z,6.97
2018-08-24T03:14:27.979Z,6.90
2018-08-24T03:17:01.842Z,7.35
2018-08-24T03:19:32.602Z,6.70
2018-08-24T03:22:01.231Z,6.85
2018-08-24T03:24:29.988Z,7.37
2018-08-24T03:26:58.746Z,7.43
2018-08-24T03:29:28.992Z,7.25
2018-08-24T03:31:57.739Z,7.35
2018-08-24T03:34:28.310Z,7.62
2018-08-24T03:36:58.802Z,7.30
2018-08-24T03:39:27.548Z,7.03
2018-08-24T03:41:56.279Z,8.20
2018-08-24T03:44:25.182Z,7.30
2018-08-24T03:46:54.662Z,7.80
2018-08-24T03:49:23.445Z,8.03
2018-08-24T03:51:52.095Z,7.78
2018-08-24T03:54:22.131Z,7.30
2018-08-24T03:58:23.738Z,7.75
2018-08-24T04:00:56.539Z,7.70
2018-08-24T04:03:25.286Z,7.47
2018-08-24T04:05:53.984Z,7.67
2018-08-24T04:08:22.967Z,8.10
2018-08-24T04:10:51.543Z,7.25
2018-08-24T04:13:20.279Z,7.35
2018-08-24T04:15:48.977Z,7.33
2018-08-24T04:18:17.705Z,7.37
2018-08-24T04:20:46.391Z,7.30
2018-08-24T04:23:15.052Z,7.37
2018-08-24T04:25:43.751Z,7.40
2018-08-24T04:28:12.450Z,7.22
2018-08-24T04:30:41.192Z,6.80
2018-08-24T04:33:10.011Z,6.80
2018-08-24T04:35:39.043Z,7.30
2018-08-24T04:38:07.929Z,7.20
2018-08-24T04:40:36.786Z,7.60
2018-08-24T04:43:05.546Z,7.20
2018-08-24T04:45:34.284Z,7.10
2018-08-24T04:48:02.973Z,7.83
2018-08-24T04:50:31.917Z,7.72
2018-08-24T04:53:00.539Z,6.90
2018-08-24T04:55:29.128Z,7.00
2018-08-24T04:57:57.864Z,6.62
2018-08-24T05:00:28.070Z,6.87
2018-08-24T05:03:04.891Z,7.90
2018-08-24T05:05:33.925Z,7.55
2018-08-24T05:08:02.684Z,7.10
2018-08-24T05:10:31.400Z,7.30
2018-08-24T05:13:00.101Z,7.25
2018-08-24T05:15:28.780Z,7.10
2018-08-24T05:17:57.428Z,6.87
2018-08-24T05:20:26.095Z,6.87
2018-08-24T05:22:54.726Z,6.75
2018-08-24T05:25:25.532Z,6.85
2018-08-24T05:27:54.187Z,7.53
2018-08-24T05:30:22.862Z,8.25
2018-08-24T05:32:51.476Z,7.92
2018-08-24T05:35:20.250Z,8.00
2018-08-24T05:37:48.943Z,7.75
2018-08-24T05:40:17.622Z,7.50
2018-08-24T05:42:46.229Z,7.28
2018-08-24T05:45:17.163Z,7.70
2018-08-24T05:47:45.863Z,7.90
2018-08-24T05:50:14.525Z,7.53
2018-08-24T05:52:43.402Z,7.92
2018-08-24T05:55:12.168Z,8.40
2018-08-24T05:57:40.986Z,8.35
2018-08-24T06:00:09.762Z,8.15
2018-08-24T06:02:38.538Z,8.20
2018-08-24T06:05:07.207Z,8.25
2018-08-24T06:07:35.935Z,8.35
2018-08-24T06:10:04.653Z,8.78
2018-08-24T06:12:33.505Z,7.90
2018-08-24T06:15:02.728Z,7.60
2018-08-24T06:17:36.467Z,7.65
2018-08-24T06:20:05.269Z,7.65
2018-08-24T06:22:36.116Z,7.20
2018-08-24T06:25:04.944Z,7.65
2018-08-24T06:27:33.774Z,7.87
2018-08-24T06:30:02.480Z,7.65
2018-08-24T06:32:31.232Z,8.08
2018-08-24T06:34:59.970Z,8.43
2018-08-24T06:37:28.636Z,8.95
2018-08-24T06:39:57.346Z,8.63
2018-08-24T06:42:26.100Z,8.00
2018-08-24T06:44:54.804Z,8.38
2018-08-24T06:47:27.835Z,7.17
2018-08-24T06:49:57.603Z,7.40
2018-08-24T06:52:30.913Z,7.97
2018-08-24T06:55:03.556Z,7.80
2018-08-24T06:57:32.361Z,7.93
2018-08-24T07:00:01.233Z,8.10
2018-08-24T07:02:30.054Z,8.30
2018-08-24T07:05:01.072Z,8.28
2018-08-24T07:07:29.790Z,8.10
2018-08-24T07:09:58.470Z,7.90
2018-08-24T07:12:28.610Z,7.75
2018-08-24T07:14:57.594Z,8.25
2018-08-24T07:24:15.596Z,7.77
2018-08-24T07:26:44.439Z,7.33
2018-08-24T07:29:13.290Z,6.75
2018-08-24T07:31:44.278Z,6.50
2018-08-24T07:34:13.040Z,5.37
2018-08-24T07:36:41.915Z,6.08
2018-08-24T07:39:12.734Z,6.50
2018-08-24T07:41:41.492Z,5.90
2018-08-24T07:44:10.648Z,6.17
2018-08-24T07:46:39.658Z,5.83
2018-08-24T07:49:11.124Z,6.05
2018-08-24T07:51:40.086Z,5.63
2018-08-24T07:54:08.775Z,6.35
2018-08-24T07:56:37.627Z,5.80
2018-08-24T07:59:08.262Z,6.42
2018-08-24T08:01:37.270Z,5.53
2018-08-24T08:04:06.057Z,5.30
2018-08-24T08:06:34.926Z,5.75
2018-08-24T08:09:04.934Z,5.40
2018-08-24T08:11:40.264Z,5.50
2018-08-24T08:14:09.320Z,5.10
2018-08-24T08:16:38.038Z,4.55
2018-08-24T08:19:06.932Z,5.20
2018-08-24T08:21:35.608Z,5.28
2018-08-24T08:24:05.955Z,5.00
2018-08-24T08:26:34.728Z,4.80
2018-08-24T08:29:03.447Z,5.08
2018-08-24T08:31:32.157Z,4.90
2018-08-24T08:34:01.199Z,5.28
2018-08-24T08:36:29.783Z,5.80
2018-08-24T08:38:58.730Z,5.75
2018-08-24T08:41:27.447Z,5.87
2018-08-24T08:43:56.230Z,5.37
2018-08-24T08:46:24.944Z,6.45
2018-08-24T08:48:54.607Z,5.70
2018-08-24T08:51:23.314Z,5.87
2018-08-24T08:53:53.104Z,6.10
2018-08-24T08:56:21.810Z,6.53
2018-08-24T08:58:50.464Z,6.33
2018-08-24T09:01:19.492Z,6.87
2018-08-24T09:03:48.123Z,6.95
2018-08-24T09:06:16.780Z,6.87
2018-08-24T09:08:45.544Z,7.47
2018-08-24T09:11:14.308Z,7.40
2018-08-24T09:13:43.034Z,7.55
2018-08-24T09:16:12.278Z,7.10
2018-08-24T09:18:47.359Z,7.08
2018-08-24T09:21:21.100Z,7.10
2018-08-24T09:23:56.616Z,7.27
2018-08-24T09:26:30.522Z,7.50
2018-08-24T09:29:03.664Z,7.15
2018-08-24T09:31:34.425Z,7.25
2018-08-24T09:34:03.115Z,7.15
2018-08-24T09:36:31.933Z,7.70
2018-08-24T09:39:00.701Z,7.50
2018-08-24T09:41:31.634Z,8.60
2018-08-24T09:44:01.783Z,8.70
2018-08-24T09:46:35.658Z,8.78
2018-08-24T09:49:38.864Z,8.70
2018-08-24T09:52:13.050Z,9.10
2018-08-24T09:54:41.864Z,9.03
2018-08-24T09:57:10.671Z,9.00
2018-08-24T09:59:39.644Z,9.50
2018-08-24T10:04:15.537Z,10.35
2018-08-24T10:06:49.659Z,14.90
2018-08-24T10:09:18.292Z,9.08
2018-08-24T10:11:48.877Z,8.63
2018-08-24T10:14:17.582Z,10.93
2018-08-24T10:16:46.777Z,8.60
2018-08-24T10:19:19.448Z,11.12
2018-08-24T10:21:53.310Z,8.53
2018-08-24T10:24:22.262Z,8.23
2018-08-24T10:26:53.065Z,7.60
2018-08-24T10:29:21.820Z,8.33
2018-08-24T10:31:50.467Z,8.23
2018-08-24T10:34:19.223Z,8.58
2018-08-24T10:36:47.924Z,8.67
2018-08-24T10:39:16.707Z,7.90
2018-08-24T10:41:45.349Z,8.20
2018-08-24T10:44:14.058Z,8.07
2018-08-24T10:46:42.771Z,8.08
2018-08-24T10:49:11.434Z,8.48
2018-08-24T10:51:40.043Z,8.23
2018-08-24T10:54:08.726Z,7.67
2018-08-24T10:56:37.694Z,9.60
2018-08-24T10:59:06.462Z,8.17
2018-08-24T11:01:35.188Z,7.92
2018-08-24T11:04:03.930Z,7.83
2018-08-24T11:06:32.576Z,8.00
2018-08-24T11:09:01.236Z,7.45
2018-08-24T11:11:29.967Z,7.12
2018-08-24T11:13:58.867Z,7.10
2018-08-24T11:16:27.629Z,8.08
2018-08-24T11:18:56.326Z,8.03
2018-08-24T11:21:25.026Z,7.17
2018-08-24T11:23:53.732Z,8.30
2018-08-24T11:26:22.324Z,8.78
2018-08-24T11:28:51.142Z,7.97
2018-08-24T11:31:19.932Z,8.30
2018-08-24T11:33:48.711Z,7.03
2018-08-24T11:36:17.580Z,7.70
2018-08-24T11:38:46.387Z,7.40
2018-08-24T11:41:15.023Z,7.15
2018-08-24T11:43:43.739Z,8.03
2018-08-24T11:46:12.422Z,7.40
2018-08-24T11:48:41.099Z,7.55
2018-08-24T11:51:09.775Z,7.40
2018-08-24T11:53:38.408Z,6.50
2018-08-24T11:56:08.797Z,6.75
2018-08-24T11:58:37.577Z,6.87
2018-08-24T12:01:06.355Z,6.83
2018-08-24T12:03:35.151Z,7.03
2018-08-24T12:06:03.988Z,7.78
2018-08-24T12:08:32.829Z,6.73
2018-08-24T12:11:01.591Z,7.00
2018-08-24T12:13:30.866Z,6.83
2018-08-24T12:15:59.484Z,7.40
2018-08-24T12:18:28.332Z,6.50
2018-08-24T12:20:56.952Z,6.45
2018-08-24T12:23:25.853Z,6.20
2018-08-24T12:25:54.820Z,6.05
2018-08-24T12:28:23.777Z,6.30
2018-08-24T12:30:52.811Z,5.80
2018-08-24T12:33:21.547Z,6.15
2018-08-24T12:35:52.640Z,6.37
2018-08-24T12:38:21.552Z,7.47
2018-08-24T12:40:50.252Z,5.70
2018-08-24T12:43:19.042Z,5.90
2018-08-24T12:45:47.971Z,6.47
2018-08-24T12:48:16.762Z,5.55
2018-08-24T12:50:45.505Z,5.40
2018-08-24T12:53:14.225Z,5.00
2018-08-24T12:55:43.047Z,5.62
2018-08-24T12:58:14.605Z,5.20
2018-08-24T13:00:43.630Z,5.40
2018-08-24T13:03:17.058Z,4.80
2018-08-24T13:05:45.794Z,5.10
2018-08-24T13:08:14.555Z,5.07
2018-08-24T13:10:43.307Z,4.87
2018-08-24T13:13:12.279Z,5.50
2018-08-24T13:15:41.140Z,4.97
2018-08-24T13:18:09.962Z,5.03
2018-08-24T13:20:42.583Z,4.80
2018-08-24T13:23:15.369Z,4.90
2018-08-24T13:25:44.143Z,5.13
2018-08-24T13:28:12.841Z,5.10
2018-08-24T13:30:41.608Z,4.75
2018-08-24T13:33:10.216Z,5.40
2018-08-24T13:35:39.005Z,5.17
2018-08-24T13:38:10.662Z,5.33
2018-08-24T13:40:39.407Z,5.30
2018-08-24T13:43:09.016Z,6.08
2018-08-24T13:45:37.973Z,5.40
2018-08-24T13:48:07.114Z,5.27
2018-08-24T13:50:35.888Z,5.20
2018-08-24T13:53:04.734Z,5.25
2018-08-24T13:55:33.706Z,4.90
2018-08-24T13:58:02.726Z,5.33
2018-08-24T14:00:31.477Z,5.20
2018-08-24T14:03:00.267Z,5.40
2018-08-24T14:05:29.157Z,5.28
2018-08-24T14:07:57.827Z,5.20
2018-08-24T14:10:26.536Z,4.72
2018-08-24T14:12:55.336Z,4.97
2018-08-24T14:15:24.392Z,5.20
2018-08-24T14:17:54.429Z,5.53
2018-08-24T14:20:24.465Z,5.85
2018-08-24T14:22:54.754Z,5.50
2018-08-24T14:25:24.288Z,5.63
2018-08-24T14:27:53.262Z,5.42
2018-08-24T14:30:22.015Z,5.58
2018-08-24T14:32:50.882Z,5.70
2018-08-24T14:35:19.760Z,5.75
2018-08-24T14:37:48.819Z,5.17
2018-08-24T14:40:17.443Z,5.73
2018-08-24T14:42:46.262Z,8.80
2018-08-24T14:45:14.938Z,7.23
2018-08-24T14:47:43.470Z,6.50
2018-08-24T14:50:13.612Z,6.10
2018-08-24T14:52:42.347Z,5.85
2018-08-24T14:55:11.045Z,5.40
2018-08-24T14:57:39.713Z,5.20
2018-08-24T15:00:08.402Z,5.33
2018-08-24T15:02:37.212Z,4.85
2018-08-24T15:05:08.314Z,5.05
2018-08-24T15:07:37.019Z,5.03
2018-08-24T15:10:06.030Z,5.08
2018-08-24T15:12:36.199Z,5.62
2018-08-24T15:15:07.153Z,5.97
2018-08-24T15:17:35.957Z,5.95
2018-08-24T15:20:05.104Z,5.65
2018-08-24T15:22:34.252Z,5.50
2018-08-24T15:25:03.170Z,5.62
2018-08-24T15:27:32.182Z,5.47
2018-08-24T15:30:01.040Z,5.33
2018-08-24T15:32:29.749Z,5.10
2018-08-24T15:34:58.462Z,4.75
2018-08-24T15:37:26.986Z,4.53
2018-08-24T15:39:55.780Z,4.50
2018-08-24T15:42:24.574Z,4.80
2018-08-24T15:44:53.423Z,4.80
2018-08-24T15:47:22.296Z,4.55
2018-08-24T15:49:51.395Z,9.73
2018-08-24T15:52:20.040Z,4.47
2018-08-24T15:54:48.806Z,4.75
2018-08-24T15:57:17.438Z,4.58
2018-08-24T15:59:46.132Z,4.47
2018-08-24T16:02:14.930Z,4.20
2018-08-24T16:04:43.737Z,6.60
2018-08-24T16:07:12.413Z,4.40
2018-08-24T16:09:41.146Z,4.70
2018-08-24T16:12:09.884Z,5.05
2018-08-24T16:14:38.554Z,4.33
2018-08-24T16:17:07.398Z,4.97
2018-08-24T16:19:36.310Z,4.70
2018-08-24T16:22:05.111Z,4.65
2018-08-24T16:24:35.684Z,4.40
2018-08-24T16:27:04.495Z,4.97
2018-08-24T16:29:34.880Z,4.23
2018-08-24T16:32:03.784Z,4.40
2018-08-24T16:34:35.388Z,5.97
2018-08-24T16:37:04.256Z,6.37
2018-08-24T16:39:32.935Z,4.33
2018-08-24T16:42:01.710Z,4.17
2018-08-24T16:44:31.406Z,4.50
2018-08-24T16:48:32.505Z,4.70
2018-08-24T16:51:01.518Z,4.78
2018-08-24T16:53:30.450Z,4.47
2018-08-24T16:55:59.147Z,4.65
2018-08-24T16:58:27.931Z,4.87
2018-08-24T17:00:56.648Z,5.22
2018-08-24T17:03:27.899Z,4.70
2018-08-24T17:05:56.903Z,5.15
2018-08-24T17:08:25.633Z,8.60
2018-08-24T17:10:54.631Z,5.20
2018-08-24T17:13:23.248Z,6.53
2018-08-24T17:15:52.019Z,8.30
2018-08-24T17:18:20.839Z,5.17
2018-08-24T17:20:49.612Z,5.05
2018-08-24T17:23:19.252Z,6.12
2018-08-24T17:25:48.078Z,5.77
2018-08-24T17:28:16.814Z,4.83
2018-08-24T17:30:49.445Z,4.65
2018-08-24T17:33:18.213Z,4.87
2018-08-24T17:35:47.270Z,4.20
2018-08-24T17:38:16.104Z,4.83
2018-08-24T17:40:45.343Z,4.20
2018-08-24T17:43:14.044Z,4.85
2018-08-24T17:45:42.708Z,4.75
2018-08-24T17:48:11.584Z,4.95
2018-08-24T17:50:40.168Z,5.80
2018-08-24T17:53:08.992Z,6.45
2018-08-24T17:55:39.206Z,4.20
2018-08-24T17:58:10.499Z,5.47
2018-08-24T18:00:39.734Z,4.60
2018-08-24T18:03:08.607Z,4.75
2018-08-24T18:05:37.313Z,4.90
2018-08-24T18:08:06.334Z,4.92
2018-08-24T18:10:35.445Z,7.35
2018-08-24T18:13:04.830Z,5.97
2018-08-24T18:15:33.576Z,5.53
2018-08-24T18:18:04.029Z,5.10
2018-08-24T18:20:32.741Z,5.25
2018-08-24T18:23:02.567Z,4.92
2018-08-24T18:25:31.347Z,5.08
2018-08-24T18:28:00.773Z,6.40
2018-08-24T18:30:29.566Z,6.57
2018-08-24T18:32:58.283Z,7.10
2018-08-24T18:35:27.207Z,5.97
2018-08-24T18:37:55.975Z,5.33
2018-08-24T18:40:24.731Z,5.50
2018-08-24T18:42:53.395Z,5.42
2018-08-24T18:45:23.608Z,5.87
2018-08-24T18:47:53.619Z,11.20
2018-08-24T18:50:22.382Z,5.22
2018-08-24T18:52:51.078Z,5.35
2018-08-24T18:55:19.736Z,4.90
2018-08-24T18:57:48.550Z,5.87
2018-08-24T19:00:17.289Z,5.50
2018-08-24T19:02:46.011Z,5.50
2018-08-24T19:05:14.903Z,5.65
2018-08-24T19:07:43.716Z,8.93
2018-08-24T19:10:13.184Z,5.12
2018-08-24T19:12:44.821Z,4.73
2018-08-24T19:15:13.391Z,6.70
2018-08-24T19:17:47.325Z,5.97
2018-08-24T19:20:22.405Z,5.17
2018-08-24T19:22:51.851Z,5.30
2018-08-24T19:25:23.355Z,6.40
2018-08-24T19:27:57.302Z,7.50
2018-08-24T19:30:31.229Z,5.22
2018-08-24T19:33:00.037Z,4.90
2018-08-24T19:35:28.692Z,13.30
2018-08-24T19:37:58.146Z,5.23
2018-08-24T19:40:32.084Z,5.50
2018-08-24T19:43:02.998Z,4.90
2018-08-24T19:45:31.725Z,5.58
2018-08-24T19:48:07.047Z,5.42
2018-08-24T19:50:36.839Z,5.78
2018-08-24T19:53:05.477Z,6.50
2018-08-24T19:55:34.159Z,5.35
2018-08-24T19:58:08.191Z,5.58
2018-08-24T20:00:36.992Z,5.28
2018-08-24T20:03:07.306Z,4.97
2018-08-24T20:05:36.143Z,5.27
2018-08-24T20:08:10.131Z,4.90
2018-08-24T20:10:39.418Z,5.15
2018-08-24T20:13:08.191Z,5.17
2018-08-24T20:15:42.080Z,5.17
2018-08-24T20:18:10.770Z,5.47
2018-08-24T20:20:39.463Z,5.75
2018-08-24T20:23:08.152Z,5.60
2018-08-24T20:25:36.927Z,5.47
2018-08-24T20:28:05.709Z,5.70
2018-08-24T20:30:34.505Z,5.75
2018-08-24T20:33:03.208Z,5.83
2018-08-24T20:35:31.990Z,6.05
2018-08-24T20:38:01.582Z,6.55
2018-08-24T20:40:30.359Z,5.90
2018-08-24T20:42:59.119Z,5.95
2018-08-24T20:45:27.790Z,6.47
2018-08-24T20:47:56.568Z,6.75
2018-08-24T20:50:25.321Z,7.87
2018-08-24T20:52:56.180Z,8.07
2018-08-24T20:55:25.067Z,8.65
2018-08-24T20:57:53.827Z,9.60
2018-08-24T21:00:22.489Z,10.30
2018-08-24T21:02:51.333Z,9.83
2018-08-24T21:05:20.099Z,10.30
2018-08-24T21:07:48.893Z,10.60
2018-08-24T21:10:17.691Z,10.93
2018-08-24T21:12:46.946Z,11.12
2018-08-24T21:15:17.379Z,12.88
2018-08-24T21:17:46.075Z,13.90
2018-08-24T21:20:14.812Z,14.25
2018-08-24T21:22:43.482Z,16.35
2018-08-24T21:25:12.150Z,17.05
2018-08-24T21:27:41.026Z,16.97
2018-08-24T21:30:09.859Z,17.17
2018-08-24T21:32:38.605Z,17.25
2018-08-24T21:35:07.258Z,18.85
2018-08-24T21:37:36.143Z,18.75
2018-08-24T21:40:04.877Z,18.05
2018-08-24T21:42:33.546Z,17.50
2018-08-24T21:45:02.329Z,18.12
2018-08-24T21:47:31.033Z,17.85
2018-08-24T21:49:59.669Z,16.47
2018-08-24T21:52:28.469Z,16.10
2018-08-24T21:54:57.249Z,16.00
2018-08-24T21:57:25.968Z,16.30
2018-08-24T21:59:54.848Z,16.00
2018-08-24T22:02:23.525Z,16.82
2018-08-24T22:04:52.838Z,17.12
2018-08-24T22:07:21.690Z,16.80
2018-08-24T22:09:50.446Z,16.85
2018-08-24T22:12:19.194Z,17.35
2018-08-24T22:14:48.112Z,17.05
2018-08-24T22:17:16.801Z,17.10
2018-08-24T22:19:45.414Z,17.02
2018-08-24T22:22:14.127Z,17.62
2018-08-24T22:24:42.933Z,17.65
2018-08-24T22:27:11.595Z,17.75
2018-08-24T22:29:40.415Z,17.40
2018-08-24T22:32:09.083Z,17.77
2018-08-24T22:34:38.216Z,17.90
2018-08-24T22:37:06.965Z,18.40
2018-08-24T22:39:35.662Z,18.30
2018-08-24T22:42:06.759Z,18.75
2018-08-24T22:44:35.490Z,20.12
2018-08-24T22:47:07.035Z,19.75
2018-08-24T22:49:35.742Z,19.57
2018-08-24T22:52:04.826Z,19.82
2018-08-24T22:54:36.552Z,20.37
2018-08-24T22:57:05.393Z,19.85
2018-08-24T22:59:34.382Z,20.30
2018-08-24T23:02:04.490Z,21.02
2018-08-24T23:04:33.467Z,20.70
2018-08-24T23:07:02.239Z,21.10
2018-08-24T23:09:31.281Z,22.98
2018-08-24T23:11:59.989Z,21.10
2018-08-24T23:14:28.751Z,20.93
2018-08-24T23:16:57.523Z,21.42
2018-08-24T23:19:26.371Z,21.37
2018-08-24T23:21:55.026Z,20.85
2018-08-24T23:24:23.750Z,21.10
2018-08-24T23:26:52.493Z,21.60
2018-08-24T23:29:21.297Z,22.63
2018-08-24T23:31:50.053Z,21.73
2018-08-24T23:34:18.746Z,22.27
2018-08-24T23:36:47.624Z,22.80
2018-08-24T23:39:16.301Z,22.22
2018-08-24T23:41:45.000Z,22.10
2018-08-24T23:44:13.682Z,22.55
2018-08-24T23:46:42.439Z,23.20
2018-08-24T23:49:11.166Z,22.77
2018-08-24T23:51:39.801Z,21.70
2018-08-24T23:54:08.534Z,22.62
2018-08-24T23:56:37.369Z,22.00
2018-08-24T23:59:07.106Z,21.45
